sensor_id;sensor_type;location;lat;lon;timestamp;P1;P2;P0
46044;PMS7003;31781;54.094;13.428;2024-02-26T00:02:08;1.00;1.00;1.00
46044;PMS7003;31781;54.094;13.428;2024-02-26T00:08:11;1.00;1.00;1.00
46044;PMS7003;31781;54.094;13.428;2024-02-26T00:14:13;1.33;1.33;1.33
46044;PMS7003;31781;54.094;13.428;2024-02-26T00:20:14;1.33;1.33;1.33
46044;PMS7003;31781;54.094;13.428;2024-02-26T00:26:17;2.00;2.00;1.00
46044;PMS7003;31781;54.094;13.428;2024-02-26T00:32:19;1.67;1.67;1.00
46044;PMS7003;31781;54.094;13.428;2024-02-26T00:38:21;1.00;1.00;1.00
46044;PMS7003;31781;54.094;13.428;2024-02-26T00:44:24;1.00;1.00;1.00
46044;PMS7003;31781;54.094;13.428;2024-02-26T00:50:25;4.00;1.67;1.67
46044;PMS7003;31781;54.094;13.428;2024-02-26T00:56:27;0.00;0.00;0.00
46044;PMS7003;31781;54.094;13.428;2024-02-26T01:02:30;1.33;1.33;1.33
46044;PMS7003;31781;54.094;13.428;2024-02-26T01:08:32;1.67;1.67;1.67
46044;PMS7003;31781;54.094;13.428;2024-02-26T01:14:33;1.00;1.00;1.00
46044;PMS7003;31781;54.094;13.428;2024-02-26T01:20:36;1.00;1.00;1.00
46044;PMS7003;31781;54.094;13.428;2024-02-26T01:26:38;2.00;2.00;2.00
46044;PMS7003;31781;54.094;13.428;2024-02-26T01:32:40;1.00;1.00;1.00
46044;PMS7003;31781;54.094;13.428;2024-02-26T01:38:43;1.67;1.67;1.00
46044;PMS7003;31781;54.094;13.428;2024-02-26T01:44:45;1.67;1.67;1.33
46044;PMS7003;31781;54.094;13.428;2024-02-26T01:50:46;0.00;0.00;0.00
46044;PMS7003;31781;54.094;13.428;2024-02-26T01:56:49;1.33;1.33;1.33
46044;PMS7003;31781;54.094;13.428;2024-02-26T02:02:51;1.67;1.67;1.67
46044;PMS7003;31781;54.094;13.428;2024-02-26T02:08:53;4.33;2.00;2.00
46044;PMS7003;31781;54.094;13.428;2024-02-26T02:14:57;2.00;2.00;2.00
46044;PMS7003;31781;54.094;13.428;2024-02-26T02:21:01;4.00;1.00;1.00
46044;PMS7003;31781;54.094;13.428;2024-02-26T02:27:02;2.00;2.00;2.00
46044;PMS7003;31781;54.094;13.428;2024-02-26T02:33:05;1.00;1.00;1.00
46044;PMS7003;31781;54.094;13.428;2024-02-26T02:39:08;1.00;1.00;1.00
46044;PMS7003;31781;54.094;13.428;2024-02-26T02:45:10;2.67;1.67;1.00
46044;PMS7003;31781;54.094;13.428;2024-02-26T02:51:11;1.67;1.67;1.00
46044;PMS7003;31781;54.094;13.428;2024-02-26T02:57:14;2.00;2.00;2.00
46044;PMS7003;31781;54.094;13.428;2024-02-26T03:03:16;2.67;2.67;2.67
46044;PMS7003;31781;54.094;13.428;2024-02-26T03:09:18;1.00;1.00;1.00
46044;PMS7003;31781;54.094;13.428;2024-02-26T03:15:21;2.00;2.00;1.67
46044;PMS7003;31781;54.094;13.428;2024-02-26T03:21:23;0.67;0.67;0.33
46044;PMS7003;31781;54.094;13.428;2024-02-26T03:27:26;1.33;1.33;1.33
46044;PMS7003;31781;54.094;13.428;2024-02-26T03:33:29;1.00;0.00;0.00
46044;PMS7003;31781;54.094;13.428;2024-02-26T03:39:31;2.00;2.00;2.00
46044;PMS7003;31781;54.094;13.428;2024-02-26T03:45:33;2.00;2.00;2.00
46044;PMS7003;31781;54.094;13.428;2024-02-26T03:51:36;2.00;1.00;1.00
46044;PMS7003;31781;54.094;13.428;2024-02-26T03:57:38;0.67;0.67;0.67
46044;PMS7003;31781;54.094;13.428;2024-02-26T04:03:39;1.33;1.33;1.33
46044;PMS7003;31781;54.094;13.428;2024-02-26T04:09:42;1.00;1.00;1.00
46044;PMS7003;31781;54.094;13.428;2024-02-26T04:15:44;1.67;1.67;1.00
46044;PMS7003;31781;54.094;13.428;2024-02-26T04:21:46;2.00;1.00;1.00
46044;PMS7003;31781;54.094;13.428;2024-02-26T04:27:49;6.33;4.00;2.67
46044;PMS7003;31781;54.094;13.428;2024-02-26T04:33:51;2.67;2.67;2.00
46044;PMS7003;31781;54.094;13.428;2024-02-26T04:39:52;2.00;2.00;2.00
46044;PMS7003;31781;54.094;13.428;2024-02-26T04:45:55;4.00;4.00;2.00
46044;PMS7003;31781;54.094;13.428;2024-02-26T04:51:57;4.33;4.33;2.67
46044;PMS7003;31781;54.094;13.428;2024-02-26T04:57:59;2.00;2.00;2.00
46044;PMS7003;31781;54.094;13.428;2024-02-26T05:04:02;1.67;1.67;1.00
46044;PMS7003;31781;54.094;13.428;2024-02-26T05:10:04;2.00;2.00;2.00
46044;PMS7003;31781;54.094;13.428;2024-02-26T05:16:06;2.00;2.00;2.00
46044;PMS7003;31781;54.094;13.428;2024-02-26T05:22:09;1.00;1.00;1.00
46044;PMS7003;31781;54.094;13.428;2024-02-26T05:28:10;1.67;1.67;1.00
46044;PMS7003;31781;54.094;13.428;2024-02-26T05:34:12;1.00;1.00;1.00
46044;PMS7003;31781;54.094;13.428;2024-02-26T05:40:16;1.33;0.00;0.00
46044;PMS7003;31781;54.094;13.428;2024-02-26T05:46:18;2.00;2.00;2.00
46044;PMS7003;31781;54.094;13.428;2024-02-26T05:52:20;3.33;3.33;3.33
46044;PMS7003;31781;54.094;13.428;2024-02-26T05:58:28;2.00;2.00;1.67
46044;PMS7003;31781;54.094;13.428;2024-02-26T06:04:32;7.00;7.00;4.33
46044;PMS7003;31781;54.094;13.428;2024-02-26T06:10:33;5.00;5.00;4.33
46044;PMS7003;31781;54.094;13.428;2024-02-26T06:16:37;4.33;4.33;4.00
46044;PMS7003;31781;54.094;13.428;2024-02-26T06:22:39;2.67;2.67;1.67
46044;PMS7003;31781;54.094;13.428;2024-02-26T06:28:41;1.00;1.00;1.00
46044;PMS7003;31781;54.094;13.428;2024-02-26T06:34:44;4.00;4.00;2.00
46044;PMS7003;31781;54.094;13.428;2024-02-26T06:40:46;19.25;19.25;13.75
46044;PMS7003;31781;54.094;13.428;2024-02-26T06:46:47;8.00;7.00;6.33
46044;PMS7003;31781;54.094;13.428;2024-02-26T06:52:50;4.00;4.00;4.00
46044;PMS7003;31781;54.094;13.428;2024-02-26T06:58:52;1.33;1.33;1.00
46044;PMS7003;31781;54.094;13.428;2024-02-26T07:04:53;3.33;3.33;2.67
46044;PMS7003;31781;54.094;13.428;2024-02-26T07:10:56;4.33;4.33;4.00
46044;PMS7003;31781;54.094;13.428;2024-02-26T07:16:58;4.00;4.00;4.00
46044;PMS7003;31781;54.094;13.428;2024-02-26T07:23:00;7.33;7.33;5.00
46044;PMS7003;31781;54.094;13.428;2024-02-26T07:29:03;9.67;8.00;5.67
46044;PMS7003;31781;54.094;13.428;2024-02-26T07:35:04;3.00;1.33;1.00
46044;PMS7003;31781;54.094;13.428;2024-02-26T07:41:07;3.67;1.33;1.00
46044;PMS7003;31781;54.094;13.428;2024-02-26T07:47:10;8.33;8.33;6.33
46044;PMS7003;31781;54.094;13.428;2024-02-26T07:53:12;8.00;8.00;8.00
46044;PMS7003;31781;54.094;13.428;2024-02-26T07:59:14;5.67;5.67;4.00
46044;PMS7003;31781;54.094;13.428;2024-02-26T08:05:17;6.00;5.00;3.33
46044;PMS7003;31781;54.094;13.428;2024-02-26T08:11:19;7.67;7.33;4.67
46044;PMS7003;31781;54.094;13.428;2024-02-26T08:17:21;10.00;8.67;7.33
46044;PMS7003;31781;54.094;13.428;2024-02-26T08:23:24;8.67;8.00;5.67
46044;PMS7003;31781;54.094;13.428;2024-02-26T08:29:25;9.00;9.00;9.00
46044;PMS7003;31781;54.094;13.428;2024-02-26T08:35:27;9.33;9.33;8.00
46044;PMS7003;31781;54.094;13.428;2024-02-26T08:41:31;9.67;9.67;6.00
46044;PMS7003;31781;54.094;13.428;2024-02-26T08:47:32;8.33;8.33;5.67
46044;PMS7003;31781;54.094;13.428;2024-02-26T08:53:34;5.00;5.00;5.00
46044;PMS7003;31781;54.094;13.428;2024-02-26T08:59:45;9.33;9.33;7.67
46044;PMS7003;31781;54.094;13.428;2024-02-26T09:05:47;6.33;6.33;5.33
46044;PMS7003;31781;54.094;13.428;2024-02-26T09:11:49;7.67;5.67;5.00
46044;PMS7003;31781;54.094;13.428;2024-02-26T09:17:52;10.67;9.67;7.33
46044;PMS7003;31781;54.094;13.428;2024-02-26T09:23:54;5.50;5.50;4.75
46044;PMS7003;31781;54.094;13.428;2024-02-26T09:29:56;3.25;3.25;3.00
46044;PMS7003;31781;54.094;13.428;2024-02-26T09:35:59;6.75;6.75;6.00
46044;PMS7003;31781;54.094;13.428;2024-02-26T09:42:00;4.50;3.00;2.75
46044;PMS7003;31781;54.094;13.428;2024-02-26T09:48:06;4.00;4.00;3.25
46044;PMS7003;31781;54.094;13.428;2024-02-26T09:54:13;3.00;3.00;2.00
46044;PMS7003;31781;54.094;13.428;2024-02-26T10:00:18;6.00;3.25;3.00
46044;PMS7003;31781;54.094;13.428;2024-02-26T10:06:21;2.25;2.25;1.25
46044;PMS7003;31781;54.094;13.428;2024-02-26T10:12:25;3.25;3.25;2.25
46044;PMS7003;31781;54.094;13.428;2024-02-26T10:18:28;4.25;4.25;3.50
46044;PMS7003;31781;54.094;13.428;2024-02-26T10:24:59;3.50;3.50;3.00
46044;PMS7003;31781;54.094;13.428;2024-02-26T10:31:02;3.50;3.50;3.00
46044;PMS7003;31781;54.094;13.428;2024-02-26T10:37:04;3.00;3.00;3.00
46044;PMS7003;31781;54.094;13.428;2024-02-26T10:43:06;3.00;3.00;3.00
46044;PMS7003;31781;54.094;13.428;2024-02-26T10:49:14;4.00;4.00;3.00
46044;PMS7003;31781;54.094;13.428;2024-02-26T10:55:16;2.00;2.00;2.00
46044;PMS7003;31781;54.094;13.428;2024-02-26T11:01:18;3.50;3.25;3.00
46044;PMS7003;31781;54.094;13.428;2024-02-26T11:07:21;2.00;2.00;2.00
46044;PMS7003;31781;54.094;13.428;2024-02-26T11:13:26;2.00;1.00;1.00
46044;PMS7003;31781;54.094;13.428;2024-02-26T11:19:29;2.00;2.00;2.00
46044;PMS7003;31781;54.094;13.428;2024-02-26T11:25:39;3.00;3.00;2.00
46044;PMS7003;31781;54.094;13.428;2024-02-26T11:31:41;1.50;1.50;1.00
46044;PMS7003;31781;54.094;13.428;2024-02-26T11:37:50;1.75;1.75;1.50
46044;PMS7003;31781;54.094;13.428;2024-02-26T11:43:57;4.00;4.00;3.50
46044;PMS7003;31781;54.094;13.428;2024-02-26T11:50:00;2.00;2.00;2.00
46044;PMS7003;31781;54.094;13.428;2024-02-26T11:56:40;3.25;3.25;3.00
46044;PMS7003;31781;54.094;13.428;2024-02-26T12:02:45;3.00;3.00;3.00
46044;PMS7003;31781;54.094;13.428;2024-02-26T12:08:48;3.00;3.00;2.50
46044;PMS7003;31781;54.094;13.428;2024-02-26T12:14:51;3.00;2.50;2.00
46044;PMS7003;31781;54.094;13.428;2024-02-26T12:20:59;3.25;3.25;3.00
46044;PMS7003;31781;54.094;13.428;2024-02-26T12:27:01;3.75;3.00;2.25
46044;PMS7003;31781;54.094;13.428;2024-02-26T12:33:03;3.00;3.00;3.00
46044;PMS7003;31781;54.094;13.428;2024-02-26T12:39:07;3.25;3.25;3.00
46044;PMS7003;31781;54.094;13.428;2024-02-26T12:45:10;3.00;3.00;3.00
46044;PMS7003;31781;54.094;13.428;2024-02-26T12:51:14;3.25;3.25;2.50
46044;PMS7003;31781;54.094;13.428;2024-02-26T12:57:18;6.75;5.00;4.00
46044;PMS7003;31781;54.094;13.428;2024-02-26T13:03:21;3.00;3.00;2.00
46044;PMS7003;31781;54.094;13.428;2024-02-26T13:09:24;3.50;3.50;3.00
46044;PMS7003;31781;54.094;13.428;2024-02-26T13:15:27;3.50;3.50;3.50
46044;PMS7003;31781;54.094;13.428;2024-02-26T13:21:30;3.25;3.25;2.75
46044;PMS7003;31781;54.094;13.428;2024-02-26T13:27:32;2.00;2.00;2.00
46044;PMS7003;31781;54.094;13.428;2024-02-26T13:33:35;3.75;3.75;3.00
46044;PMS7003;31781;54.094;13.428;2024-02-26T13:39:37;3.00;3.00;2.00
46044;PMS7003;31781;54.094;13.428;2024-02-26T13:45:42;3.25;3.25;3.00
46044;PMS7003;31781;54.094;13.428;2024-02-26T13:51:46;3.00;3.00;2.50
46044;PMS7003;31781;54.094;13.428;2024-02-26T13:57:48;3.00;3.00;3.00
46044;PMS7003;31781;54.094;13.428;2024-02-26T14:03:49;3.00;3.00;3.00
46044;PMS7003;31781;54.094;13.428;2024-02-26T14:09:52;3.25;3.25;3.00
46044;PMS7003;31781;54.094;13.428;2024-02-26T14:15:54;4.00;4.00;3.50
46044;PMS7003;31781;54.094;13.428;2024-02-26T14:21:56;3.25;3.25;3.00
46044;PMS7003;31781;54.094;13.428;2024-02-26T14:27:59;5.00;5.00;4.00
46044;PMS7003;31781;54.094;13.428;2024-02-26T14:34:00;4.50;4.50;3.75
46044;PMS7003;31781;54.094;13.428;2024-02-26T14:40:02;7.00;7.00;4.75
46044;PMS7003;31781;54.094;13.428;2024-02-26T14:46:06;6.25;5.00;4.75
46044;PMS7003;31781;54.094;13.428;2024-02-26T14:52:07;9.00;9.00;5.25
46044;PMS7003;31781;54.094;13.428;2024-02-26T14:58:09;7.00;7.00;5.00
46044;PMS7003;31781;54.094;13.428;2024-02-26T15:04:12;5.00;5.00;4.00
46044;PMS7003;31781;54.094;13.428;2024-02-26T15:10:14;5.50;5.50;4.25
46044;PMS7003;31781;54.094;13.428;2024-02-26T15:16:18;3.00;3.00;3.00
46044;PMS7003;31781;54.094;13.428;2024-02-26T15:22:22;3.50;3.50;3.00
46044;PMS7003;31781;54.094;13.428;2024-02-26T15:28:24;3.50;3.50;3.00
46044;PMS7003;31781;54.094;13.428;2024-02-26T15:34:25;7.50;4.75;3.00
46044;PMS7003;31781;54.094;13.428;2024-02-26T15:40:28;5.75;5.75;4.00
46044;PMS7003;31781;54.094;13.428;2024-02-26T15:46:30;7.75;7.75;6.00
46044;PMS7003;31781;54.094;13.428;2024-02-26T15:52:32;3.75;3.75;3.75
46044;PMS7003;31781;54.094;13.428;2024-02-26T15:58:35;5.00;3.25;2.25
46044;PMS7003;31781;54.094;13.428;2024-02-26T16:04:36;5.00;4.50;3.75
46044;PMS7003;31781;54.094;13.428;2024-02-26T16:10:38;3.75;3.75;3.25
46044;PMS7003;31781;54.094;13.428;2024-02-26T16:16:52;6.00;4.00;3.00
46044;PMS7003;31781;54.094;13.428;2024-02-26T16:23:00;6.00;6.00;4.00
46044;PMS7003;31781;54.094;13.428;2024-02-26T16:29:01;5.50;5.50;3.00
46044;PMS7003;31781;54.094;13.428;2024-02-26T16:35:05;3.25;3.25;3.00
46044;PMS7003;31781;54.094;13.428;2024-02-26T16:41:07;4.50;4.50;4.25
46044;PMS7003;31781;54.094;13.428;2024-02-26T16:47:09;8.25;7.00;6.00
46044;PMS7003;31781;54.094;13.428;2024-02-26T16:53:12;5.50;5.50;5.00
46044;PMS7003;31781;54.094;13.428;2024-02-26T16:59:14;6.00;5.75;4.25
46044;PMS7003;31781;54.094;13.428;2024-02-26T17:05:16;10.75;8.00;6.25
46044;PMS7003;31781;54.094;13.428;2024-02-26T17:11:19;10.75;7.00;6.00
46044;PMS7003;31781;54.094;13.428;2024-02-26T17:17:21;8.00;6.67;5.00
46044;PMS7003;31781;54.094;13.428;2024-02-26T17:23:22;6.75;6.75;5.25
46044;PMS7003;31781;54.094;13.428;2024-02-26T17:29:26;6.00;6.00;5.00
46044;PMS7003;31781;54.094;13.428;2024-02-26T17:35:28;6.50;6.50;5.50
46044;PMS7003;31781;54.094;13.428;2024-02-26T17:41:29;7.00;7.00;6.00
46044;PMS7003;31781;54.094;13.428;2024-02-26T17:47:32;6.00;6.00;5.33
46044;PMS7003;31781;54.094;13.428;2024-02-26T17:53:35;6.00;6.00;5.33
46044;PMS7003;31781;54.094;13.428;2024-02-26T17:59:37;7.33;7.33;6.33
46044;PMS7003;31781;54.094;13.428;2024-02-26T18:05:40;7.25;7.25;4.75
46044;PMS7003;31781;54.094;13.428;2024-02-26T18:11:42;8.67;6.33;5.33
46044;PMS7003;31781;54.094;13.428;2024-02-26T18:17:44;6.00;6.00;5.00
46044;PMS7003;31781;54.094;13.428;2024-02-26T18:23:47;9.67;9.67;7.00
46044;PMS7003;31781;54.094;13.428;2024-02-26T18:29:51;7.33;7.33;6.33
46044;PMS7003;31781;54.094;13.428;2024-02-26T18:35:53;9.00;9.00;6.00
46044;PMS7003;31781;54.094;13.428;2024-02-26T18:41:56;9.67;9.67;7.00
46044;PMS7003;31781;54.094;13.428;2024-02-26T18:47:58;10.33;9.33;7.67
46044;PMS7003;31781;54.094;13.428;2024-02-26T18:53:59;11.33;11.33;10.00
46044;PMS7003;31781;54.094;13.428;2024-02-26T19:00:03;7.67;7.67;7.00
46044;PMS7003;31781;54.094;13.428;2024-02-26T19:06:07;14.67;13.00;10.00
46044;PMS7003;31781;54.094;13.428;2024-02-26T19:12:09;15.00;15.00;11.33
46044;PMS7003;31781;54.094;13.428;2024-02-26T19:18:13;14.33;12.33;10.00
46044;PMS7003;31781;54.094;13.428;2024-02-26T19:24:14;14.67;11.67;9.00
46044;PMS7003;31781;54.094;13.428;2024-02-26T19:30:17;15.67;14.00;10.33
46044;PMS7003;31781;54.094;13.428;2024-02-26T19:36:20;13.00;13.00;9.67
46044;PMS7003;31781;54.094;13.428;2024-02-26T19:42:22;17.00;17.00;11.33
46044;PMS7003;31781;54.094;13.428;2024-02-26T19:48:24;16.00;14.67;11.33
46044;PMS7003;31781;54.094;13.428;2024-02-26T19:54:27;12.67;12.00;9.33
46044;PMS7003;31781;54.094;13.428;2024-02-26T20:00:28;10.67;10.67;9.33
46044;PMS7003;31781;54.094;13.428;2024-02-26T20:06:30;6.00;5.67;4.67
46044;PMS7003;31781;54.094;13.428;2024-02-26T20:12:33;10.00;10.00;9.00
46044;PMS7003;31781;54.094;13.428;2024-02-26T20:18:35;9.00;9.00;6.00
46044;PMS7003;31781;54.094;13.428;2024-02-26T20:24:37;9.33;9.33;7.33
46044;PMS7003;31781;54.094;13.428;2024-02-26T20:30:40;9.33;9.33;8.00
46044;PMS7003;31781;54.094;13.428;2024-02-26T20:36:41;13.00;10.67;9.00
46044;PMS7003;31781;54.094;13.428;2024-02-26T20:42:44;9.67;9.67;7.67
46044;PMS7003;31781;54.094;13.428;2024-02-26T20:48:47;8.67;8.67;6.67
46044;PMS7003;31781;54.094;13.428;2024-02-26T20:54:48;9.00;9.00;8.33
46044;PMS7003;31781;54.094;13.428;2024-02-26T21:00:50;9.67;9.67;7.33
46044;PMS7003;31781;54.094;13.428;2024-02-26T21:06:53;14.00;14.00;10.67
46044;PMS7003;31781;54.094;13.428;2024-02-26T21:12:55;15.33;13.67;11.00
46044;PMS7003;31781;54.094;13.428;2024-02-26T21:18:56;12.00;12.00;9.00
46044;PMS7003;31781;54.094;13.428;2024-02-26T21:25:00;10.33;10.33;9.00
46044;PMS7003;31781;54.094;13.428;2024-02-26T21:31:01;14.33;10.67;9.00
46044;PMS7003;31781;54.094;13.428;2024-02-26T21:37:03;9.33;9.33;6.33
46044;PMS7003;31781;54.094;13.428;2024-02-26T21:43:06;10.67;10.67;9.00
46044;PMS7003;31781;54.094;13.428;2024-02-26T21:49:08;13.00;10.33;8.33
46044;PMS7003;31781;54.094;13.428;2024-02-26T21:55:10;9.33;9.33;7.33
46044;PMS7003;31781;54.094;13.428;2024-02-26T22:01:13;14.33;13.00;10.33
46044;PMS7003;31781;54.094;13.428;2024-02-26T22:07:15;12.67;12.33;9.00
46044;PMS7003;31781;54.094;13.428;2024-02-26T22:13:17;9.00;9.00;6.00
46044;PMS7003;31781;54.094;13.428;2024-02-26T22:19:20;16.33;12.33;9.33
46044;PMS7003;31781;54.094;13.428;2024-02-26T22:25:22;10.67;10.67;9.00
46044;PMS7003;31781;54.094;13.428;2024-02-26T22:31:23;14.00;13.00;9.33
46044;PMS7003;31781;54.094;13.428;2024-02-26T22:37:27;17.00;14.67;12.00
46044;PMS7003;31781;54.094;13.428;2024-02-26T22:43:28;13.67;12.33;9.00
46044;PMS7003;31781;54.094;13.428;2024-02-26T22:49:30;18.00;16.33;12.00
46044;PMS7003;31781;54.094;13.428;2024-02-26T22:55:33;15.67;15.67;12.33
46044;PMS7003;31781;54.094;13.428;2024-02-26T23:01:34;20.67;19.00;13.67
46044;PMS7003;31781;54.094;13.428;2024-02-26T23:07:36;20.00;20.00;15.33
46044;PMS7003;31781;54.094;13.428;2024-02-26T23:13:39;22.33;19.67;13.67
46044;PMS7003;31781;54.094;13.428;2024-02-26T23:19:41;21.00;20.00;13.00
46044;PMS7003;31781;54.094;13.428;2024-02-26T23:25:43;22.00;19.67;13.00
46044;PMS7003;31781;54.094;13.428;2024-02-26T23:31:46;20.33;18.33;13.67
46044;PMS7003;31781;54.094;13.428;2024-02-26T23:37:47;17.00;12.33;9.00
46044;PMS7003;31781;54.094;13.428;2024-02-26T23:43:49;18.00;15.67;11.33
46044;PMS7003;31781;54.094;13.428;2024-02-26T23:49:52;14.67;13.33;10.67
46044;PMS7003;31781;54.094;13.428;2024-02-26T23:55:54;12.33;12.33;9.33
